sensor_id;sensor_type;location;lat;lon;timestamp;P1;P2;P0
73973;PMS5003;62336;-26.094;27.994;2024-01-30T00:01:16;20;20;
73973;PMS5003;62336;-26.094;27.994;2024-01-30T00:03:42;23;22;
73973;PMS5003;62336;-26.094;27.994;2024-01-30T00:06:08;21;20;
73973;PMS5003;62336;-26.094;27.994;2024-01-30T00:08:34;24;22;
73973;PMS5003;62336;-26.094;27.994;2024-01-30T00:10:59;21;19;
73973;PMS5003;62336;-26.094;27.994;2024-01-30T00:13:24;24;24;
73973;PMS5003;62336;-26.094;27.994;2024-01-30T00:15:50;17;16;
73973;PMS5003;62336;-26.094;27.994;2024-01-30T00:18:15;19;18;
73973;PMS5003;62336;-26.094;27.994;2024-01-30T00:20:40;20;20;
73973;PMS5003;62336;-26.094;27.994;2024-01-30T00:23:06;19;18;
73973;PMS5003;62336;-26.094;27.994;2024-01-30T00:25:31;17;17;
73973;PMS5003;62336;-26.094;27.994;2024-01-30T00:27:57;21;19;
73973;PMS5003;62336;-26.094;27.994;2024-01-30T00:30:22;20;16;
73973;PMS5003;62336;-26.094;27.994;2024-01-30T00:32:48;23;20;
73973;PMS5003;62336;-26.094;27.994;2024-01-30T00:35:14;18;17;
73973;PMS5003;62336;-26.094;27.994;2024-01-30T00:37:39;18;18;
73973;PMS5003;62336;-26.094;27.994;2024-01-30T00:40:05;20;18;
73973;PMS5003;62336;-26.094;27.994;2024-01-30T00:42:31;23;20;
73973;PMS5003;62336;-26.094;27.994;2024-01-30T00:44:56;18;18;
73973;PMS5003;62336;-26.094;27.994;2024-01-30T00:47:24;23;20;
73973;PMS5003;62336;-26.094;27.994;2024-01-30T00:49:49;28;24;
73973;PMS5003;62336;-26.094;27.994;2024-01-30T00:52:13;23;21;
73973;PMS5003;62336;-26.094;27.994;2024-01-30T00:54:39;18;18;
73973;PMS5003;62336;-26.094;27.994;2024-01-30T00:57:04;24;22;
73973;PMS5003;62336;-26.094;27.994;2024-01-30T00:59:30;22;20;
73973;PMS5003;62336;-26.094;27.994;2024-01-30T01:01:55;23;22;
73973;PMS5003;62336;-26.094;27.994;2024-01-30T01:04:20;22;21;
73973;PMS5003;62336;-26.094;27.994;2024-01-30T01:06:45;19;19;
73973;PMS5003;62336;-26.094;27.994;2024-01-30T01:09:11;21;20;
73973;PMS5003;62336;-26.094;27.994;2024-01-30T01:11:38;17;16;
73973;PMS5003;62336;-26.094;27.994;2024-01-30T01:14:03;19;17;
73973;PMS5003;62336;-26.094;27.994;2024-01-30T01:16:28;22;21;
73973;PMS5003;62336;-26.094;27.994;2024-01-30T01:18:53;23;22;
73973;PMS5003;62336;-26.094;27.994;2024-01-30T01:21:19;20;20;
73973;PMS5003;62336;-26.094;27.994;2024-01-30T01:23:45;21;21;
73973;PMS5003;62336;-26.094;27.994;2024-01-30T01:26:09;22;22;
73973;PMS5003;62336;-26.094;27.994;2024-01-30T01:28:35;20;18;
73973;PMS5003;62336;-26.094;27.994;2024-01-30T01:31:01;24;22;
73973;PMS5003;62336;-26.094;27.994;2024-01-30T01:33:26;26;25;
73973;PMS5003;62336;-26.094;27.994;2024-01-30T01:35:51;26;22;
73973;PMS5003;62336;-26.094;27.994;2024-01-30T01:38:17;20;20;
73973;PMS5003;62336;-26.094;27.994;2024-01-30T01:40:43;22;21;
73973;PMS5003;62336;-26.094;27.994;2024-01-30T01:43:08;19;19;
73973;PMS5003;62336;-26.094;27.994;2024-01-30T01:45:34;20;19;
73973;PMS5003;62336;-26.094;27.994;2024-01-30T01:47:59;22;21;
73973;PMS5003;62336;-26.094;27.994;2024-01-30T01:50:24;26;24;
73973;PMS5003;62336;-26.094;27.994;2024-01-30T01:52:50;22;21;
73973;PMS5003;62336;-26.094;27.994;2024-01-30T01:55:15;20;20;
73973;PMS5003;62336;-26.094;27.994;2024-01-30T01:57:40;24;20;
73973;PMS5003;62336;-26.094;27.994;2024-01-30T02:00:07;24;23;
73973;PMS5003;62336;-26.094;27.994;2024-01-30T02:02:32;26;24;
73973;PMS5003;62336;-26.094;27.994;2024-01-30T02:04:57;24;24;
73973;PMS5003;62336;-26.094;27.994;2024-01-30T02:07:22;21;20;
73973;PMS5003;62336;-26.094;27.994;2024-01-30T02:09:48;24;23;
73973;PMS5003;62336;-26.094;27.994;2024-01-30T02:12:14;26;25;
73973;PMS5003;62336;-26.094;27.994;2024-01-30T02:17:05;20;20;
73973;PMS5003;62336;-26.094;27.994;2024-01-30T02:19:30;23;22;
73973;PMS5003;62336;-26.094;27.994;2024-01-30T02:21:56;21;19;
73973;PMS5003;62336;-26.094;27.994;2024-01-30T02:24:21;28;24;
73973;PMS5003;62336;-26.094;27.994;2024-01-30T02:26:46;16;14;
73973;PMS5003;62336;-26.094;27.994;2024-01-30T02:29:12;22;21;
73973;PMS5003;62336;-26.094;27.994;2024-01-30T02:31:37;18;17;
73973;PMS5003;62336;-26.094;27.994;2024-01-30T02:34:03;26;24;
73973;PMS5003;62336;-26.094;27.994;2024-01-30T02:36:29;28;27;
73973;PMS5003;62336;-26.094;27.994;2024-01-30T02:38:54;25;21;
73973;PMS5003;62336;-26.094;27.994;2024-01-30T02:41:19;22;21;
73973;PMS5003;62336;-26.094;27.994;2024-01-30T02:43:45;20;20;
73973;PMS5003;62336;-26.094;27.994;2024-01-30T02:46:11;25;22;
73973;PMS5003;62336;-26.094;27.994;2024-01-30T02:48:36;25;24;
73973;PMS5003;62336;-26.094;27.994;2024-01-30T02:51:01;19;19;
73973;PMS5003;62336;-26.094;27.994;2024-01-30T02:53:27;22;20;
73973;PMS5003;62336;-26.094;27.994;2024-01-30T02:55:52;20;18;
73973;PMS5003;62336;-26.094;27.994;2024-01-30T02:58:18;20;19;
73973;PMS5003;62336;-26.094;27.994;2024-01-30T03:00:43;19;17;
73973;PMS5003;62336;-26.094;27.994;2024-01-30T03:03:09;19;18;
73973;PMS5003;62336;-26.094;27.994;2024-01-30T03:05:34;15;15;
73973;PMS5003;62336;-26.094;27.994;2024-01-30T03:08:00;14;13;
73973;PMS5003;62336;-26.094;27.994;2024-01-30T03:10:25;18;16;
73973;PMS5003;62336;-26.094;27.994;2024-01-30T03:12:50;18;17;
73973;PMS5003;62336;-26.094;27.994;2024-01-30T03:15:16;18;17;
73973;PMS5003;62336;-26.094;27.994;2024-01-30T03:17:42;17;14;
73973;PMS5003;62336;-26.094;27.994;2024-01-30T03:20:08;14;13;
73973;PMS5003;62336;-26.094;27.994;2024-01-30T03:22:34;15;14;
73973;PMS5003;62336;-26.094;27.994;2024-01-30T03:24:59;13;12;
73973;PMS5003;62336;-26.094;27.994;2024-01-30T03:27:24;18;17;
73973;PMS5003;62336;-26.094;27.994;2024-01-30T03:29:50;13;13;
73973;PMS5003;62336;-26.094;27.994;2024-01-30T03:32:15;13;12;
73973;PMS5003;62336;-26.094;27.994;2024-01-30T03:34:42;21;20;
73973;PMS5003;62336;-26.094;27.994;2024-01-30T03:37:07;13;12;
73973;PMS5003;62336;-26.094;27.994;2024-01-30T03:39:32;20;19;
73973;PMS5003;62336;-26.094;27.994;2024-01-30T03:41:57;15;14;
73973;PMS5003;62336;-26.094;27.994;2024-01-30T03:44:23;16;14;
73973;PMS5003;62336;-26.094;27.994;2024-01-30T03:46:48;17;16;
73973;PMS5003;62336;-26.094;27.994;2024-01-30T03:49:14;18;16;
73973;PMS5003;62336;-26.094;27.994;2024-01-30T03:51:39;20;19;
73973;PMS5003;62336;-26.094;27.994;2024-01-30T03:54:05;20;18;
73973;PMS5003;62336;-26.094;27.994;2024-01-30T03:56:31;19;17;
73973;PMS5003;62336;-26.094;27.994;2024-01-30T03:58:57;20;19;
73973;PMS5003;62336;-26.094;27.994;2024-01-30T04:01:22;21;19;
73973;PMS5003;62336;-26.094;27.994;2024-01-30T04:03:47;18;17;
73973;PMS5003;62336;-26.094;27.994;2024-01-30T04:06:13;20;18;
73973;PMS5003;62336;-26.094;27.994;2024-01-30T04:08:38;19;19;
73973;PMS5003;62336;-26.094;27.994;2024-01-30T04:11:04;16;16;
73973;PMS5003;62336;-26.094;27.994;2024-01-30T04:13:29;20;18;
73973;PMS5003;62336;-26.094;27.994;2024-01-30T04:15:55;18;17;
73973;PMS5003;62336;-26.094;27.994;2024-01-30T04:18:21;22;19;
73973;PMS5003;62336;-26.094;27.994;2024-01-30T04:20:46;15;14;
73973;PMS5003;62336;-26.094;27.994;2024-01-30T04:23:12;15;14;
73973;PMS5003;62336;-26.094;27.994;2024-01-30T04:25:37;20;17;
73973;PMS5003;62336;-26.094;27.994;2024-01-30T04:28:03;15;15;
73973;PMS5003;62336;-26.094;27.994;2024-01-30T04:30:29;15;13;
73973;PMS5003;62336;-26.094;27.994;2024-01-30T04:32:53;12;12;
73973;PMS5003;62336;-26.094;27.994;2024-01-30T04:35:20;10;10;
73973;PMS5003;62336;-26.094;27.994;2024-01-30T04:37:45;17;15;
73973;PMS5003;62336;-26.094;27.994;2024-01-30T04:40:11;18;18;
73973;PMS5003;62336;-26.094;27.994;2024-01-30T04:42:36;15;14;
73973;PMS5003;62336;-26.094;27.994;2024-01-30T04:45:02;13;13;
73973;PMS5003;62336;-26.094;27.994;2024-01-30T04:47:28;19;16;
73973;PMS5003;62336;-26.094;27.994;2024-01-30T04:49:53;21;21;
73973;PMS5003;62336;-26.094;27.994;2024-01-30T04:52:18;27;26;
73973;PMS5003;62336;-26.094;27.994;2024-01-30T04:54:43;19;17;
73973;PMS5003;62336;-26.094;27.994;2024-01-30T04:57:09;21;19;
73973;PMS5003;62336;-26.094;27.994;2024-01-30T04:59:35;23;22;
73973;PMS5003;62336;-26.094;27.994;2024-01-30T05:02:00;23;22;
73973;PMS5003;62336;-26.094;27.994;2024-01-30T05:04:25;21;21;
73973;PMS5003;62336;-26.094;27.994;2024-01-30T05:06:51;23;21;
73973;PMS5003;62336;-26.094;27.994;2024-01-30T05:09:16;25;24;
73973;PMS5003;62336;-26.094;27.994;2024-01-30T05:11:44;30;28;
73973;PMS5003;62336;-26.094;27.994;2024-01-30T05:14:07;29;27;
73973;PMS5003;62336;-26.094;27.994;2024-01-30T05:16:32;29;28;
73973;PMS5003;62336;-26.094;27.994;2024-01-30T05:18:57;25;25;
73973;PMS5003;62336;-26.094;27.994;2024-01-30T05:21:23;28;25;
73973;PMS5003;62336;-26.094;27.994;2024-01-30T05:23:49;27;27;
73973;PMS5003;62336;-26.094;27.994;2024-01-30T05:26:14;32;31;
73973;PMS5003;62336;-26.094;27.994;2024-01-30T05:28:39;28;27;
73973;PMS5003;62336;-26.094;27.994;2024-01-30T05:31:05;34;33;
73973;PMS5003;62336;-26.094;27.994;2024-01-30T05:33:30;38;33;
73973;PMS5003;62336;-26.094;27.994;2024-01-30T05:35:56;33;32;
73973;PMS5003;62336;-26.094;27.994;2024-01-30T05:38:21;38;36;
73973;PMS5003;62336;-26.094;27.994;2024-01-30T05:40:46;38;34;
73973;PMS5003;62336;-26.094;27.994;2024-01-30T05:43:12;34;33;
73973;PMS5003;62336;-26.094;27.994;2024-01-30T05:45:37;36;34;
73973;PMS5003;62336;-26.094;27.994;2024-01-30T05:48:03;43;38;
73973;PMS5003;62336;-26.094;27.994;2024-01-30T05:50:27;37;37;
73973;PMS5003;62336;-26.094;27.994;2024-01-30T05:52:53;41;38;
73973;PMS5003;62336;-26.094;27.994;2024-01-30T05:55:18;38;34;
73973;PMS5003;62336;-26.094;27.994;2024-01-30T05:57:44;36;34;
73973;PMS5003;62336;-26.094;27.994;2024-01-30T06:00:10;26;25;
73973;PMS5003;62336;-26.094;27.994;2024-01-30T06:02:35;42;37;
73973;PMS5003;62336;-26.094;27.994;2024-01-30T06:05:00;23;22;
73973;PMS5003;62336;-26.094;27.994;2024-01-30T06:07:26;21;21;
73973;PMS5003;62336;-26.094;27.994;2024-01-30T06:09:51;27;26;
73973;PMS5003;62336;-26.094;27.994;2024-01-30T06:12:17;19;19;
73973;PMS5003;62336;-26.094;27.994;2024-01-30T06:14:42;18;17;
73973;PMS5003;62336;-26.094;27.994;2024-01-30T06:17:07;19;18;
73973;PMS5003;62336;-26.094;27.994;2024-01-30T06:19:33;18;18;
73973;PMS5003;62336;-26.094;27.994;2024-01-30T06:21:58;21;20;
73973;PMS5003;62336;-26.094;27.994;2024-01-30T06:24:25;18;17;
73973;PMS5003;62336;-26.094;27.994;2024-01-30T06:26:49;24;22;
73973;PMS5003;62336;-26.094;27.994;2024-01-30T06:29:15;14;14;
73973;PMS5003;62336;-26.094;27.994;2024-01-30T06:31:41;19;19;
73973;PMS5003;62336;-26.094;27.994;2024-01-30T06:34:07;15;14;
73973;PMS5003;62336;-26.094;27.994;2024-01-30T06:36:33;13;13;
73973;PMS5003;62336;-26.094;27.994;2024-01-30T06:38:58;15;14;
73973;PMS5003;62336;-26.094;27.994;2024-01-30T06:41:24;13;13;
73973;PMS5003;62336;-26.094;27.994;2024-01-30T06:43:50;13;13;
73973;PMS5003;62336;-26.094;27.994;2024-01-30T06:46:15;14;11;
73973;PMS5003;62336;-26.094;27.994;2024-01-30T06:48:41;15;14;
73973;PMS5003;62336;-26.094;27.994;2024-01-30T06:51:06;14;13;
73973;PMS5003;62336;-26.094;27.994;2024-01-30T06:53:32;12;12;
73973;PMS5003;62336;-26.094;27.994;2024-01-30T06:55:57;14;12;
73973;PMS5003;62336;-26.094;27.994;2024-01-30T06:58:23;13;13;
73973;PMS5003;62336;-26.094;27.994;2024-01-30T07:00:49;9;9;
73973;PMS5003;62336;-26.094;27.994;2024-01-30T07:03:15;12;11;
73973;PMS5003;62336;-26.094;27.994;2024-01-30T07:05:40;14;12;
73973;PMS5003;62336;-26.094;27.994;2024-01-30T07:08:06;11;10;
73973;PMS5003;62336;-26.094;27.994;2024-01-30T07:10:32;11;11;
73973;PMS5003;62336;-26.094;27.994;2024-01-30T07:12:58;9;9;
73973;PMS5003;62336;-26.094;27.994;2024-01-30T07:15:23;10;9;
73973;PMS5003;62336;-26.094;27.994;2024-01-30T07:17:49;11;11;
73973;PMS5003;62336;-26.094;27.994;2024-01-30T07:20:15;11;11;
73973;PMS5003;62336;-26.094;27.994;2024-01-30T07:22:41;10;10;
73973;PMS5003;62336;-26.094;27.994;2024-01-30T07:25:08;13;11;
73973;PMS5003;62336;-26.094;27.994;2024-01-30T07:27:33;11;10;
73973;PMS5003;62336;-26.094;27.994;2024-01-30T07:29:59;11;11;
73973;PMS5003;62336;-26.094;27.994;2024-01-30T07:32:24;13;13;
73973;PMS5003;62336;-26.094;27.994;2024-01-30T07:34:50;11;11;
73973;PMS5003;62336;-26.094;27.994;2024-01-30T07:37:16;10;9;
73973;PMS5003;62336;-26.094;27.994;2024-01-30T07:39:41;9;9;
73973;PMS5003;62336;-26.094;27.994;2024-01-30T07:42:07;9;8;
73973;PMS5003;62336;-26.094;27.994;2024-01-30T07:44:33;8;8;
73973;PMS5003;62336;-26.094;27.994;2024-01-30T07:46:58;8;8;
73973;PMS5003;62336;-26.094;27.994;2024-01-30T07:49:24;8;8;
73973;PMS5003;62336;-26.094;27.994;2024-01-30T07:51:50;7;7;
73973;PMS5003;62336;-26.094;27.994;2024-01-30T07:54:16;8;8;
73973;PMS5003;62336;-26.094;27.994;2024-01-30T07:56:41;7;7;
73973;PMS5003;62336;-26.094;27.994;2024-01-30T07:59:09;7;7;
73973;PMS5003;62336;-26.094;27.994;2024-01-30T08:01:33;8;8;
73973;PMS5003;62336;-26.094;27.994;2024-01-30T08:03:59;9;8;
73973;PMS5003;62336;-26.094;27.994;2024-01-30T08:06:24;13;13;
73973;PMS5003;62336;-26.094;27.994;2024-01-30T08:08:49;11;11;
73973;PMS5003;62336;-26.094;27.994;2024-01-30T08:11:15;10;10;
73973;PMS5003;62336;-26.094;27.994;2024-01-30T08:13:41;10;10;
73973;PMS5003;62336;-26.094;27.994;2024-01-30T08:16:07;12;11;
73973;PMS5003;62336;-26.094;27.994;2024-01-30T08:18:32;10;10;
73973;PMS5003;62336;-26.094;27.994;2024-01-30T08:20:59;9;9;
73973;PMS5003;62336;-26.094;27.994;2024-01-30T08:23:24;8;8;
73973;PMS5003;62336;-26.094;27.994;2024-01-30T08:25:50;9;9;
73973;PMS5003;62336;-26.094;27.994;2024-01-30T08:28:16;9;8;
73973;PMS5003;62336;-26.094;27.994;2024-01-30T08:30:42;9;8;
73973;PMS5003;62336;-26.094;27.994;2024-01-30T08:33:08;8;8;
73973;PMS5003;62336;-26.094;27.994;2024-01-30T08:35:34;7;7;
73973;PMS5003;62336;-26.094;27.994;2024-01-30T08:38:00;11;9;
73973;PMS5003;62336;-26.094;27.994;2024-01-30T08:40:25;10;10;
73973;PMS5003;62336;-26.094;27.994;2024-01-30T08:42:51;10;10;
73973;PMS5003;62336;-26.094;27.994;2024-01-30T08:45:17;10;10;
73973;PMS5003;62336;-26.094;27.994;2024-01-30T08:47:43;10;10;
73973;PMS5003;62336;-26.094;27.994;2024-01-30T08:50:09;12;10;
73973;PMS5003;62336;-26.094;27.994;2024-01-30T08:52:34;15;13;
73973;PMS5003;62336;-26.094;27.994;2024-01-30T08:55:00;11;10;
73973;PMS5003;62336;-26.094;27.994;2024-01-30T08:57:26;15;15;
73973;PMS5003;62336;-26.094;27.994;2024-01-30T08:59:51;10;10;
73973;PMS5003;62336;-26.094;27.994;2024-01-30T09:02:18;11;11;
73973;PMS5003;62336;-26.094;27.994;2024-01-30T09:04:43;9;9;
73973;PMS5003;62336;-26.094;27.994;2024-01-30T09:07:09;11;11;
73973;PMS5003;62336;-26.094;27.994;2024-01-30T09:09:35;12;12;
73973;PMS5003;62336;-26.094;27.994;2024-01-30T09:12:01;11;11;
73973;PMS5003;62336;-26.094;27.994;2024-01-30T09:14:26;11;11;
73973;PMS5003;62336;-26.094;27.994;2024-01-30T09:16:52;12;12;
73973;PMS5003;62336;-26.094;27.994;2024-01-30T09:19:18;13;12;
73973;PMS5003;62336;-26.094;27.994;2024-01-30T09:21:44;12;12;
73973;PMS5003;62336;-26.094;27.994;2024-01-30T09:24:09;13;13;
73973;PMS5003;62336;-26.094;27.994;2024-01-30T09:26:35;15;14;
73973;PMS5003;62336;-26.094;27.994;2024-01-30T09:28:59;13;12;
73973;PMS5003;62336;-26.094;27.994;2024-01-30T09:31:25;18;17;
73973;PMS5003;62336;-26.094;27.994;2024-01-30T09:33:50;15;14;
73973;PMS5003;62336;-26.094;27.994;2024-01-30T09:36:16;16;13;
73973;PMS5003;62336;-26.094;27.994;2024-01-30T09:38:42;17;15;
73973;PMS5003;62336;-26.094;27.994;2024-01-30T09:41:09;12;12;
73973;PMS5003;62336;-26.094;27.994;2024-01-30T09:43:33;14;14;
73973;PMS5003;62336;-26.094;27.994;2024-01-30T09:45:59;14;14;
73973;PMS5003;62336;-26.094;27.994;2024-01-30T09:48:25;13;13;
73973;PMS5003;62336;-26.094;27.994;2024-01-30T09:50:50;14;13;
73973;PMS5003;62336;-26.094;27.994;2024-01-30T09:53:14;16;15;
73973;PMS5003;62336;-26.094;27.994;2024-01-30T09:55:40;16;16;
73973;PMS5003;62336;-26.094;27.994;2024-01-30T09:58:06;17;15;
73973;PMS5003;62336;-26.094;27.994;2024-01-30T10:00:31;12;12;
73973;PMS5003;62336;-26.094;27.994;2024-01-30T10:02:57;14;13;
73973;PMS5003;62336;-26.094;27.994;2024-01-30T10:05:23;15;14;
73973;PMS5003;62336;-26.094;27.994;2024-01-30T10:07:52;15;14;
73973;PMS5003;62336;-26.094;27.994;2024-01-30T10:10:14;17;16;
73973;PMS5003;62336;-26.094;27.994;2024-01-30T10:12:39;15;14;
73973;PMS5003;62336;-26.094;27.994;2024-01-30T10:15:08;14;14;
73973;PMS5003;62336;-26.094;27.994;2024-01-30T10:17:29;14;14;
73973;PMS5003;62336;-26.094;27.994;2024-01-30T10:19:54;16;16;
73973;PMS5003;62336;-26.094;27.994;2024-01-30T10:22:19;17;16;
73973;PMS5003;62336;-26.094;27.994;2024-01-30T10:24:44;16;16;
73973;PMS5003;62336;-26.094;27.994;2024-01-30T10:27:09;17;15;
73973;PMS5003;62336;-26.094;27.994;2024-01-30T10:29:34;18;16;
73973;PMS5003;62336;-26.094;27.994;2024-01-30T10:31:59;14;14;
73973;PMS5003;62336;-26.094;27.994;2024-01-30T10:34:24;15;14;
73973;PMS5003;62336;-26.094;27.994;2024-01-30T10:36:50;16;15;
73973;PMS5003;62336;-26.094;27.994;2024-01-30T10:39:16;15;15;
73973;PMS5003;62336;-26.094;27.994;2024-01-30T10:41:42;17;17;
73973;PMS5003;62336;-26.094;27.994;2024-01-30T10:44:08;13;13;
73973;PMS5003;62336;-26.094;27.994;2024-01-30T10:46:33;17;16;
73973;PMS5003;62336;-26.094;27.994;2024-01-30T10:48:58;19;18;
73973;PMS5003;62336;-26.094;27.994;2024-01-30T10:51:24;16;16;
73973;PMS5003;62336;-26.094;27.994;2024-01-30T10:53:48;14;14;
73973;PMS5003;62336;-26.094;27.994;2024-01-30T10:56:13;16;15;
73973;PMS5003;62336;-26.094;27.994;2024-01-30T10:58:39;14;14;
73973;PMS5003;62336;-26.094;27.994;2024-01-30T11:01:05;14;14;
73973;PMS5003;62336;-26.094;27.994;2024-01-30T11:03:32;15;15;
73973;PMS5003;62336;-26.094;27.994;2024-01-30T11:05:58;17;16;
73973;PMS5003;62336;-26.094;27.994;2024-01-30T11:08:23;15;14;
73973;PMS5003;62336;-26.094;27.994;2024-01-30T11:10:47;15;15;
73973;PMS5003;62336;-26.094;27.994;2024-01-30T11:13:13;17;17;
73973;PMS5003;62336;-26.094;27.994;2024-01-30T11:15:39;15;14;
73973;PMS5003;62336;-26.094;27.994;2024-01-30T11:18:05;16;15;
73973;PMS5003;62336;-26.094;27.994;2024-01-30T11:20:30;16;16;
73973;PMS5003;62336;-26.094;27.994;2024-01-30T11:22:56;16;15;
73973;PMS5003;62336;-26.094;27.994;2024-01-30T11:25:20;16;16;
73973;PMS5003;62336;-26.094;27.994;2024-01-30T11:27:46;17;17;
73973;PMS5003;62336;-26.094;27.994;2024-01-30T11:30:20;15;15;
73973;PMS5003;62336;-26.094;27.994;2024-01-30T11:32:36;21;19;
73973;PMS5003;62336;-26.094;27.994;2024-01-30T11:35:03;17;17;
73973;PMS5003;62336;-26.094;27.994;2024-01-30T11:37:26;18;17;
73973;PMS5003;62336;-26.094;27.994;2024-01-30T11:39:51;18;17;
73973;PMS5003;62336;-26.094;27.994;2024-01-30T11:42:17;21;21;
73973;PMS5003;62336;-26.094;27.994;2024-01-30T11:44:46;21;20;
73973;PMS5003;62336;-26.094;27.994;2024-01-30T11:47:08;19;18;
73973;PMS5003;62336;-26.094;27.994;2024-01-30T11:49:33;20;19;
73973;PMS5003;62336;-26.094;27.994;2024-01-30T11:51:59;16;16;
73973;PMS5003;62336;-26.094;27.994;2024-01-30T11:54:24;18;16;
73973;PMS5003;62336;-26.094;27.994;2024-01-30T11:56:50;18;18;
73973;PMS5003;62336;-26.094;27.994;2024-01-30T11:59:15;21;20;
73973;PMS5003;62336;-26.094;27.994;2024-01-30T12:01:40;17;17;
73973;PMS5003;62336;-26.094;27.994;2024-01-30T12:04:05;17;16;
73973;PMS5003;62336;-26.094;27.994;2024-01-30T12:06:31;18;18;
73973;PMS5003;62336;-26.094;27.994;2024-01-30T12:08:57;19;19;
73973;PMS5003;62336;-26.094;27.994;2024-01-30T12:11:22;19;18;
73973;PMS5003;62336;-26.094;27.994;2024-01-30T12:13:48;20;20;
73973;PMS5003;62336;-26.094;27.994;2024-01-30T12:16:13;21;20;
73973;PMS5003;62336;-26.094;27.994;2024-01-30T12:18:39;19;19;
73973;PMS5003;62336;-26.094;27.994;2024-01-30T12:21:04;16;16;
73973;PMS5003;62336;-26.094;27.994;2024-01-30T12:23:29;19;15;
73973;PMS5003;62336;-26.094;27.994;2024-01-30T12:25:54;22;22;
73973;PMS5003;62336;-26.094;27.994;2024-01-30T12:28:20;24;22;
73973;PMS5003;62336;-26.094;27.994;2024-01-30T12:30:44;22;21;
73973;PMS5003;62336;-26.094;27.994;2024-01-30T12:33:09;20;19;
73973;PMS5003;62336;-26.094;27.994;2024-01-30T12:35:34;20;19;
73973;PMS5003;62336;-26.094;27.994;2024-01-30T12:38:00;20;20;
73973;PMS5003;62336;-26.094;27.994;2024-01-30T12:40:25;24;23;
73973;PMS5003;62336;-26.094;27.994;2024-01-30T12:42:50;23;21;
73973;PMS5003;62336;-26.094;27.994;2024-01-30T12:45:15;22;22;
73973;PMS5003;62336;-26.094;27.994;2024-01-30T12:47:40;25;25;
73973;PMS5003;62336;-26.094;27.994;2024-01-30T12:50:06;19;19;
73973;PMS5003;62336;-26.094;27.994;2024-01-30T12:52:31;18;18;
73973;PMS5003;62336;-26.094;27.994;2024-01-30T12:54:57;22;20;
73973;PMS5003;62336;-26.094;27.994;2024-01-30T12:57:22;21;21;
73973;PMS5003;62336;-26.094;27.994;2024-01-30T12:59:47;21;20;
73973;PMS5003;62336;-26.094;27.994;2024-01-30T13:02:13;21;20;
73973;PMS5003;62336;-26.094;27.994;2024-01-30T13:04:39;20;19;
73973;PMS5003;62336;-26.094;27.994;2024-01-30T13:07:04;22;20;
73973;PMS5003;62336;-26.094;27.994;2024-01-30T13:09:31;20;20;
73973;PMS5003;62336;-26.094;27.994;2024-01-30T13:11:55;21;21;
73973;PMS5003;62336;-26.094;27.994;2024-01-30T13:14:21;22;22;
73973;PMS5003;62336;-26.094;27.994;2024-01-30T13:16:46;22;21;
73973;PMS5003;62336;-26.094;27.994;2024-01-30T13:19:11;21;21;
73973;PMS5003;62336;-26.094;27.994;2024-01-30T13:21:36;21;20;
73973;PMS5003;62336;-26.094;27.994;2024-01-30T13:24:02;23;23;
73973;PMS5003;62336;-26.094;27.994;2024-01-30T13:26:27;24;24;
73973;PMS5003;62336;-26.094;27.994;2024-01-30T13:28:53;29;28;
73973;PMS5003;62336;-26.094;27.994;2024-01-30T13:31:19;28;27;
73973;PMS5003;62336;-26.094;27.994;2024-01-30T13:33:44;20;19;
73973;PMS5003;62336;-26.094;27.994;2024-01-30T13:36:10;20;20;
73973;PMS5003;62336;-26.094;27.994;2024-01-30T13:38:36;27;26;
73973;PMS5003;62336;-26.094;27.994;2024-01-30T13:41:02;29;27;
73973;PMS5003;62336;-26.094;27.994;2024-01-30T13:43:27;26;25;
73973;PMS5003;62336;-26.094;27.994;2024-01-30T13:45:52;28;27;
73973;PMS5003;62336;-26.094;27.994;2024-01-30T13:48:19;31;30;
73973;PMS5003;62336;-26.094;27.994;2024-01-30T13:50:43;38;36;
73973;PMS5003;62336;-26.094;27.994;2024-01-30T13:53:11;34;33;
73973;PMS5003;62336;-26.094;27.994;2024-01-30T13:55:34;33;32;
73973;PMS5003;62336;-26.094;27.994;2024-01-30T13:58:00;35;35;
73973;PMS5003;62336;-26.094;27.994;2024-01-30T14:00:25;40;38;
73973;PMS5003;62336;-26.094;27.994;2024-01-30T14:02:50;42;40;
73973;PMS5003;62336;-26.094;27.994;2024-01-30T14:05:16;45;44;
73973;PMS5003;62336;-26.094;27.994;2024-01-30T14:07:42;43;41;
73973;PMS5003;62336;-26.094;27.994;2024-01-30T14:10:07;45;42;
73973;PMS5003;62336;-26.094;27.994;2024-01-30T14:12:32;43;41;
73973;PMS5003;62336;-26.094;27.994;2024-01-30T14:14:57;41;40;
73973;PMS5003;62336;-26.094;27.994;2024-01-30T14:17:23;43;40;
73973;PMS5003;62336;-26.094;27.994;2024-01-30T14:19:48;42;40;
73973;PMS5003;62336;-26.094;27.994;2024-01-30T14:22:13;39;38;
73973;PMS5003;62336;-26.094;27.994;2024-01-30T14:24:39;44;42;
73973;PMS5003;62336;-26.094;27.994;2024-01-30T14:27:03;37;36;
73973;PMS5003;62336;-26.094;27.994;2024-01-30T14:29:29;33;32;
73973;PMS5003;62336;-26.094;27.994;2024-01-30T14:31:54;37;36;
73973;PMS5003;62336;-26.094;27.994;2024-01-30T14:34:20;37;36;
73973;PMS5003;62336;-26.094;27.994;2024-01-30T14:36:45;36;34;
73973;PMS5003;62336;-26.094;27.994;2024-01-30T14:39:10;38;34;
73973;PMS5003;62336;-26.094;27.994;2024-01-30T14:41:36;37;36;
73973;PMS5003;62336;-26.094;27.994;2024-01-30T14:44:01;33;33;
73973;PMS5003;62336;-26.094;27.994;2024-01-30T14:46:27;33;33;
73973;PMS5003;62336;-26.094;27.994;2024-01-30T14:48:52;32;30;
73973;PMS5003;62336;-26.094;27.994;2024-01-30T14:51:17;35;34;
73973;PMS5003;62336;-26.094;27.994;2024-01-30T14:53:44;26;26;
73973;PMS5003;62336;-26.094;27.994;2024-01-30T14:56:08;29;28;
73973;PMS5003;62336;-26.094;27.994;2024-01-30T14:58:33;30;29;
73973;PMS5003;62336;-26.094;27.994;2024-01-30T15:00:58;29;28;
73973;PMS5003;62336;-26.094;27.994;2024-01-30T15:03:24;34;33;
73973;PMS5003;62336;-26.094;27.994;2024-01-30T15:05:50;32;32;
73973;PMS5003;62336;-26.094;27.994;2024-01-30T15:08:15;31;30;
73973;PMS5003;62336;-26.094;27.994;2024-01-30T15:10:41;32;30;
73973;PMS5003;62336;-26.094;27.994;2024-01-30T15:13:06;34;32;
73973;PMS5003;62336;-26.094;27.994;2024-01-30T15:15:32;31;31;
73973;PMS5003;62336;-26.094;27.994;2024-01-30T15:17:58;34;33;
73973;PMS5003;62336;-26.094;27.994;2024-01-30T15:20:23;35;35;
73973;PMS5003;62336;-26.094;27.994;2024-01-30T15:22:48;33;33;
73973;PMS5003;62336;-26.094;27.994;2024-01-30T15:25:13;32;31;
73973;PMS5003;62336;-26.094;27.994;2024-01-30T15:27:38;36;33;
73973;PMS5003;62336;-26.094;27.994;2024-01-30T15:30:04;35;33;
73973;PMS5003;62336;-26.094;27.994;2024-01-30T15:32:29;36;34;
73973;PMS5003;62336;-26.094;27.994;2024-01-30T15:34:54;37;37;
73973;PMS5003;62336;-26.094;27.994;2024-01-30T15:37:19;35;34;